sensor_id;sensor_type;location;lat;lon;timestamp;P1;durP1;ratioP1;P2;durP2;ratioP2
75616;SDS011;64200;55.426;37.758;2024-01-07T00:00:58;11.53;;;5.60;;
75616;SDS011;64200;55.426;37.758;2024-01-07T00:05:59;9.27;;;4.30;;
75616;SDS011;64200;55.426;37.758;2024-01-07T00:10:59;5.53;;;3.57;;
75616;SDS011;64200;55.426;37.758;2024-01-07T00:16:00;18.67;;;4.60;;
75616;SDS011;64200;55.426;37.758;2024-01-07T00:21:01;3.72;;;3.40;;
75616;SDS011;64200;55.426;37.758;2024-01-07T00:26:01;13.40;;;4.22;;
75616;SDS011;64200;55.426;37.758;2024-01-07T00:31:03;12.70;;;6.05;;
75616;SDS011;64200;55.426;37.758;2024-01-07T00:36:04;9.00;;;4.57;;
75616;SDS011;64200;55.426;37.758;2024-01-07T00:41:04;5.35;;;4.40;;
75616;SDS011;64200;55.426;37.758;2024-01-07T00:46:05;9.93;;;4.27;;
75616;SDS011;64200;55.426;37.758;2024-01-07T00:51:05;13.97;;;5.73;;
75616;SDS011;64200;55.426;37.758;2024-01-07T00:56:06;6.27;;;1.80;;
75616;SDS011;64200;55.426;37.758;2024-01-07T01:01:07;9.20;;;2.40;;
75616;SDS011;64200;55.426;37.758;2024-01-07T01:06:08;8.17;;;3.50;;
75616;SDS011;64200;55.426;37.758;2024-01-07T01:11:11;8.73;;;3.13;;
75616;SDS011;64200;55.426;37.758;2024-01-07T01:16:12;4.20;;;2.58;;
75616;SDS011;64200;55.426;37.758;2024-01-07T01:21:12;5.27;;;1.57;;
75616;SDS011;64200;55.426;37.758;2024-01-07T01:26:13;4.88;;;2.55;;
75616;SDS011;64200;55.426;37.758;2024-01-07T01:31:14;2.30;;;1.23;;
75616;SDS011;64200;55.426;37.758;2024-01-07T01:36:15;5.85;;;3.00;;
75616;SDS011;64200;55.426;37.758;2024-01-07T01:41:16;12.93;;;2.43;;
75616;SDS011;64200;55.426;37.758;2024-01-07T01:46:16;2.95;;;1.77;;
75616;SDS011;64200;55.426;37.758;2024-01-07T01:51:17;9.33;;;2.33;;
75616;SDS011;64200;55.426;37.758;2024-01-07T01:56:18;5.43;;;1.08;;
75616;SDS011;64200;55.426;37.758;2024-01-07T02:06:21;5.82;;;2.78;;
75616;SDS011;64200;55.426;37.758;2024-01-07T02:11:22;4.53;;;1.98;;
75616;SDS011;64200;55.426;37.758;2024-01-07T02:16:23;5.35;;;2.50;;
75616;SDS011;64200;55.426;37.758;2024-01-07T02:21:23;4.43;;;1.58;;
75616;SDS011;64200;55.426;37.758;2024-01-07T02:26:24;1.60;;;1.35;;
75616;SDS011;64200;55.426;37.758;2024-01-07T02:31:25;3.72;;;1.48;;
75616;SDS011;64200;55.426;37.758;2024-01-07T02:36:25;2.80;;;1.43;;
75616;SDS011;64200;55.426;37.758;2024-01-07T02:41:26;5.70;;;2.30;;
75616;SDS011;64200;55.426;37.758;2024-01-07T02:46:26;2.58;;;2.28;;
75616;SDS011;64200;55.426;37.758;2024-01-07T02:51:27;3.03;;;1.20;;
75616;SDS011;64200;55.426;37.758;2024-01-07T02:56:27;6.40;;;2.73;;
75616;SDS011;64200;55.426;37.758;2024-01-07T03:01:28;3.53;;;1.90;;
75616;SDS011;64200;55.426;37.758;2024-01-07T03:06:28;7.03;;;2.70;;
75616;SDS011;64200;55.426;37.758;2024-01-07T03:11:29;1.13;;;0.60;;
75616;SDS011;64200;55.426;37.758;2024-01-07T03:16:29;0.70;;;0.55;;
75616;SDS011;64200;55.426;37.758;2024-01-07T03:21:30;4.07;;;1.77;;
75616;SDS011;64200;55.426;37.758;2024-01-07T03:26:30;1.20;;;0.70;;
75616;SDS011;64200;55.426;37.758;2024-01-07T03:31:32;5.32;;;1.98;;
75616;SDS011;64200;55.426;37.758;2024-01-07T03:36:33;12.15;;;2.95;;
75616;SDS011;64200;55.426;37.758;2024-01-07T03:41:36;2.83;;;1.35;;
75616;SDS011;64200;55.426;37.758;2024-01-07T03:46:37;0.20;;;0.20;;
75616;SDS011;64200;55.426;37.758;2024-01-07T03:51:37;0.83;;;0.83;;
75616;SDS011;64200;55.426;37.758;2024-01-07T03:56:38;3.43;;;1.23;;
75616;SDS011;64200;55.426;37.758;2024-01-07T04:01:38;2.10;;;0.83;;
75616;SDS011;64200;55.426;37.758;2024-01-07T04:06:39;9.20;;;3.07;;
75616;SDS011;64200;55.426;37.758;2024-01-07T04:11:40;4.23;;;1.67;;
75616;SDS011;64200;55.426;37.758;2024-01-07T04:16:41;1.85;;;1.00;;
75616;SDS011;64200;55.426;37.758;2024-01-07T04:21:45;5.95;;;1.77;;
75616;SDS011;64200;55.426;37.758;2024-01-07T04:26:46;6.22;;;2.25;;
75616;SDS011;64200;55.426;37.758;2024-01-07T04:31:47;2.00;;;1.20;;
75616;SDS011;64200;55.426;37.758;2024-01-07T04:36:47;2.70;;;1.93;;
75616;SDS011;64200;55.426;37.758;2024-01-07T04:41:48;7.33;;;1.67;;
75616;SDS011;64200;55.426;37.758;2024-01-07T04:46:48;2.87;;;1.23;;
75616;SDS011;64200;55.426;37.758;2024-01-07T04:51:49;1.48;;;0.77;;
75616;SDS011;64200;55.426;37.758;2024-01-07T04:56:50;2.42;;;0.80;;
75616;SDS011;64200;55.426;37.758;2024-01-07T05:01:50;0.47;;;0.13;;
75616;SDS011;64200;55.426;37.758;2024-01-07T05:06:51;2.27;;;1.13;;
75616;SDS011;64200;55.426;37.758;2024-01-07T05:11:51;4.53;;;1.60;;
75616;SDS011;64200;55.426;37.758;2024-01-07T05:16:53;3.70;;;1.27;;
75616;SDS011;64200;55.426;37.758;2024-01-07T05:21:57;4.47;;;1.10;;
75616;SDS011;64200;55.426;37.758;2024-01-07T05:26:58;3.70;;;1.20;;
75616;SDS011;64200;55.426;37.758;2024-01-07T05:32:05;8.93;;;3.03;;
75616;SDS011;64200;55.426;37.758;2024-01-07T05:37:06;8.30;;;2.20;;
75616;SDS011;64200;55.426;37.758;2024-01-07T05:42:06;7.37;;;2.87;;
75616;SDS011;64200;55.426;37.758;2024-01-07T05:47:07;4.50;;;1.63;;
75616;SDS011;64200;55.426;37.758;2024-01-07T05:52:07;2.73;;;1.03;;
75616;SDS011;64200;55.426;37.758;2024-01-07T05:57:08;1.23;;;1.13;;
75616;SDS011;64200;55.426;37.758;2024-01-07T06:02:08;3.87;;;1.90;;
75616;SDS011;64200;55.426;37.758;2024-01-07T06:07:08;2.90;;;1.07;;
75616;SDS011;64200;55.426;37.758;2024-01-07T06:12:09;4.67;;;1.50;;
75616;SDS011;64200;55.426;37.758;2024-01-07T06:17:09;3.13;;;2.37;;
75616;SDS011;64200;55.426;37.758;2024-01-07T06:22:10;2.40;;;0.90;;
75616;SDS011;64200;55.426;37.758;2024-01-07T06:27:10;7.37;;;1.13;;
75616;SDS011;64200;55.426;37.758;2024-01-07T06:32:11;6.70;;;2.33;;
75616;SDS011;64200;55.426;37.758;2024-01-07T06:37:11;4.67;;;3.00;;
75616;SDS011;64200;55.426;37.758;2024-01-07T06:42:12;1.63;;;1.03;;
75616;SDS011;64200;55.426;37.758;2024-01-07T06:47:12;3.40;;;3.03;;
75616;SDS011;64200;55.426;37.758;2024-01-07T06:52:13;5.95;;;2.20;;
75616;SDS011;64200;55.426;37.758;2024-01-07T06:57:14;7.87;;;2.80;;
75616;SDS011;64200;55.426;37.758;2024-01-07T07:02:14;9.77;;;3.53;;
75616;SDS011;64200;55.426;37.758;2024-01-07T07:07:14;9.07;;;3.50;;
75616;SDS011;64200;55.426;37.758;2024-01-07T07:12:15;2.45;;;1.35;;
75616;SDS011;64200;55.426;37.758;2024-01-07T07:17:16;1.13;;;1.07;;
75616;SDS011;64200;55.426;37.758;2024-01-07T07:22:16;5.13;;;2.63;;
75616;SDS011;64200;55.426;37.758;2024-01-07T07:27:17;5.15;;;2.13;;
75616;SDS011;64200;55.426;37.758;2024-01-07T07:32:18;6.55;;;3.22;;
75616;SDS011;64200;55.426;37.758;2024-01-07T07:37:19;13.90;;;3.83;;
75616;SDS011;64200;55.426;37.758;2024-01-07T07:42:19;7.07;;;2.97;;
75616;SDS011;64200;55.426;37.758;2024-01-07T07:47:20;10.53;;;3.97;;
75616;SDS011;64200;55.426;37.758;2024-01-07T07:52:20;10.45;;;3.30;;
75616;SDS011;64200;55.426;37.758;2024-01-07T07:57:22;6.78;;;3.97;;
75616;SDS011;64200;55.426;37.758;2024-01-07T08:02:23;14.80;;;5.10;;
75616;SDS011;64200;55.426;37.758;2024-01-07T08:07:24;7.80;;;4.17;;
75616;SDS011;64200;55.426;37.758;2024-01-07T08:12:25;9.82;;;4.88;;
75616;SDS011;64200;55.426;37.758;2024-01-07T08:17:25;10.03;;;4.90;;
75616;SDS011;64200;55.426;37.758;2024-01-07T08:22:26;17.43;;;5.17;;
75616;SDS011;64200;55.426;37.758;2024-01-07T08:27:27;6.67;;;4.17;;
75616;SDS011;64200;55.426;37.758;2024-01-07T08:32:29;13.05;;;5.13;;
75616;SDS011;64200;55.426;37.758;2024-01-07T08:37:29;13.63;;;5.20;;
75616;SDS011;64200;55.426;37.758;2024-01-07T08:42:30;12.73;;;4.43;;
75616;SDS011;64200;55.426;37.758;2024-01-07T08:47:30;11.73;;;5.83;;
75616;SDS011;64200;55.426;37.758;2024-01-07T08:52:31;8.60;;;4.53;;
75616;SDS011;64200;55.426;37.758;2024-01-07T08:57:32;10.67;;;3.37;;
75616;SDS011;64200;55.426;37.758;2024-01-07T09:07:33;5.70;;;3.42;;
75616;SDS011;64200;55.426;37.758;2024-01-07T09:17:37;9.37;;;4.73;;
75616;SDS011;64200;55.426;37.758;2024-01-07T09:22:38;12.95;;;5.35;;
75616;SDS011;64200;55.426;37.758;2024-01-07T09:27:39;11.27;;;4.95;;
75616;SDS011;64200;55.426;37.758;2024-01-07T09:32:40;11.43;;;5.70;;
75616;SDS011;64200;55.426;37.758;2024-01-07T09:37:42;13.27;;;5.40;;
75616;SDS011;64200;55.426;37.758;2024-01-07T09:42:42;12.43;;;5.90;;
75616;SDS011;64200;55.426;37.758;2024-01-07T09:47:44;14.15;;;7.45;;
75616;SDS011;64200;55.426;37.758;2024-01-07T09:52:45;17.77;;;7.55;;
75616;SDS011;64200;55.426;37.758;2024-01-07T09:57:46;18.33;;;7.57;;
75616;SDS011;64200;55.426;37.758;2024-01-07T10:02:47;16.20;;;6.77;;
75616;SDS011;64200;55.426;37.758;2024-01-07T10:07:48;14.73;;;6.05;;
75616;SDS011;64200;55.426;37.758;2024-01-07T10:12:48;21.48;;;8.18;;
75616;SDS011;64200;55.426;37.758;2024-01-07T10:17:49;14.75;;;6.90;;
75616;SDS011;64200;55.426;37.758;2024-01-07T10:22:54;18.50;;;7.38;;
75616;SDS011;64200;55.426;37.758;2024-01-07T10:27:58;18.25;;;7.78;;
75616;SDS011;64200;55.426;37.758;2024-01-07T10:32:59;11.88;;;5.72;;
75616;SDS011;64200;55.426;37.758;2024-01-07T10:38:00;13.10;;;7.05;;
75616;SDS011;64200;55.426;37.758;2024-01-07T10:43:01;13.98;;;7.35;;
75616;SDS011;64200;55.426;37.758;2024-01-07T10:48:03;13.70;;;7.22;;
75616;SDS011;64200;55.426;37.758;2024-01-07T10:53:07;14.02;;;7.20;;
75616;SDS011;64200;55.426;37.758;2024-01-07T10:58:13;15.75;;;7.20;;
75616;SDS011;64200;55.426;37.758;2024-01-07T11:03:17;15.10;;;7.10;;
75616;SDS011;64200;55.426;37.758;2024-01-07T11:13:51;14.15;;;7.47;;
75616;SDS011;64200;55.426;37.758;2024-01-07T11:18:51;11.98;;;6.38;;
75616;SDS011;64200;55.426;37.758;2024-01-07T11:23:52;12.70;;;6.60;;
75616;SDS011;64200;55.426;37.758;2024-01-07T11:28:54;15.90;;;6.72;;
75616;SDS011;64200;55.426;37.758;2024-01-07T11:33:58;13.68;;;5.97;;
75616;SDS011;64200;55.426;37.758;2024-01-07T11:38:58;16.87;;;6.87;;
75616;SDS011;64200;55.426;37.758;2024-01-07T11:44:02;11.80;;;5.90;;
75616;SDS011;64200;55.426;37.758;2024-01-07T11:49:02;12.23;;;6.00;;
75616;SDS011;64200;55.426;37.758;2024-01-07T11:54:03;11.75;;;5.32;;
75616;SDS011;64200;55.426;37.758;2024-01-07T11:59:05;14.68;;;6.25;;
75616;SDS011;64200;55.426;37.758;2024-01-07T12:04:06;12.57;;;6.18;;
75616;SDS011;64200;55.426;37.758;2024-01-07T12:09:08;11.30;;;6.00;;
75616;SDS011;64200;55.426;37.758;2024-01-07T12:14:12;12.48;;;5.55;;
75616;SDS011;64200;55.426;37.758;2024-01-07T12:19:14;12.45;;;6.25;;
75616;SDS011;64200;55.426;37.758;2024-01-07T12:24:14;13.35;;;6.97;;
75616;SDS011;64200;55.426;37.758;2024-01-07T12:29:15;17.20;;;7.13;;
75616;SDS011;64200;55.426;37.758;2024-01-07T12:34:18;12.02;;;5.97;;
75616;SDS011;64200;55.426;37.758;2024-01-07T12:39:19;15.38;;;6.72;;
75616;SDS011;64200;55.426;37.758;2024-01-07T12:44:20;14.43;;;6.18;;
75616;SDS011;64200;55.426;37.758;2024-01-07T12:49:21;21.13;;;8.47;;
75616;SDS011;64200;55.426;37.758;2024-01-07T12:54:22;12.60;;;5.63;;
75616;SDS011;64200;55.426;37.758;2024-01-07T12:59:24;16.73;;;6.90;;
75616;SDS011;64200;55.426;37.758;2024-01-07T13:04:25;20.27;;;7.77;;
75616;SDS011;64200;55.426;37.758;2024-01-07T13:09:25;20.60;;;6.72;;
75616;SDS011;64200;55.426;37.758;2024-01-07T13:14:26;18.57;;;7.07;;
75616;SDS011;64200;55.426;37.758;2024-01-07T13:19:26;14.52;;;6.45;;
75616;SDS011;64200;55.426;37.758;2024-01-07T13:24:27;13.18;;;4.93;;
75616;SDS011;64200;55.426;37.758;2024-01-07T13:29:28;10.25;;;4.15;;
75616;SDS011;64200;55.426;37.758;2024-01-07T13:34:28;8.65;;;3.95;;
75616;SDS011;64200;55.426;37.758;2024-01-07T13:39:30;9.48;;;4.05;;
75616;SDS011;64200;55.426;37.758;2024-01-07T13:44:30;10.07;;;4.55;;
75616;SDS011;64200;55.426;37.758;2024-01-07T13:49:31;10.18;;;4.53;;
75616;SDS011;64200;55.426;37.758;2024-01-07T13:54:32;29.60;;;13.05;;
75616;SDS011;64200;55.426;37.758;2024-01-07T13:59:33;44.23;;;16.87;;
75616;SDS011;64200;55.426;37.758;2024-01-07T14:04:33;17.60;;;6.87;;
75616;SDS011;64200;55.426;37.758;2024-01-07T14:09:34;17.00;;;6.15;;
75616;SDS011;64200;55.426;37.758;2024-01-07T14:14:34;10.37;;;4.40;;
75616;SDS011;64200;55.426;37.758;2024-01-07T14:19:35;3.27;;;2.90;;
75616;SDS011;64200;55.426;37.758;2024-01-07T14:24:35;8.17;;;3.10;;
75616;SDS011;64200;55.426;37.758;2024-01-07T14:29:36;12.25;;;5.07;;
75616;SDS011;64200;55.426;37.758;2024-01-07T14:34:38;2.75;;;2.30;;
75616;SDS011;64200;55.426;37.758;2024-01-07T14:39:41;9.55;;;3.70;;
75616;SDS011;64200;55.426;37.758;2024-01-07T14:44:41;8.10;;;3.63;;
75616;SDS011;64200;55.426;37.758;2024-01-07T14:49:42;13.77;;;3.53;;
75616;SDS011;64200;55.426;37.758;2024-01-07T14:54:42;8.37;;;3.80;;
75616;SDS011;64200;55.426;37.758;2024-01-07T14:59:43;2.88;;;2.28;;
75616;SDS011;64200;55.426;37.758;2024-01-07T15:04:44;13.02;;;5.10;;
75616;SDS011;64200;55.426;37.758;2024-01-07T15:09:44;13.63;;;3.87;;
75616;SDS011;64200;55.426;37.758;2024-01-07T15:14:45;13.82;;;6.25;;
75616;SDS011;64200;55.426;37.758;2024-01-07T15:19:46;6.13;;;2.65;;
75616;SDS011;64200;55.426;37.758;2024-01-07T15:24:46;7.07;;;3.40;;
75616;SDS011;64200;55.426;37.758;2024-01-07T15:29:47;4.20;;;2.47;;
75616;SDS011;64200;55.426;37.758;2024-01-07T15:34:47;6.80;;;3.50;;
75616;SDS011;64200;55.426;37.758;2024-01-07T15:39:48;6.47;;;2.50;;
75616;SDS011;64200;55.426;37.758;2024-01-07T15:44:51;9.57;;;4.88;;
75616;SDS011;64200;55.426;37.758;2024-01-07T15:49:52;7.72;;;2.90;;
75616;SDS011;64200;55.426;37.758;2024-01-07T15:54:53;9.52;;;4.82;;
75616;SDS011;64200;55.426;37.758;2024-01-07T15:59:53;7.53;;;3.75;;
75616;SDS011;64200;55.426;37.758;2024-01-07T16:04:54;14.85;;;6.50;;
75616;SDS011;64200;55.426;37.758;2024-01-07T16:09:55;18.45;;;6.95;;
75616;SDS011;64200;55.426;37.758;2024-01-07T16:14:58;13.07;;;5.67;;
75616;SDS011;64200;55.426;37.758;2024-01-07T16:19:59;3.75;;;2.13;;
75616;SDS011;64200;55.426;37.758;2024-01-07T16:24:59;11.40;;;6.07;;
75616;SDS011;64200;55.426;37.758;2024-01-07T16:30:00;7.00;;;4.40;;
75616;SDS011;64200;55.426;37.758;2024-01-07T16:35:00;12.93;;;5.27;;
75616;SDS011;64200;55.426;37.758;2024-01-07T16:40:01;13.97;;;6.17;;
75616;SDS011;64200;55.426;37.758;2024-01-07T16:45:02;26.92;;;12.18;;
75616;SDS011;64200;55.426;37.758;2024-01-07T16:50:03;7.53;;;3.78;;
75616;SDS011;64200;55.426;37.758;2024-01-07T16:55:05;6.90;;;4.07;;
75616;SDS011;64200;55.426;37.758;2024-01-07T17:00:08;8.38;;;3.55;;
75616;SDS011;64200;55.426;37.758;2024-01-07T17:05:10;7.38;;;4.28;;
75616;SDS011;64200;55.426;37.758;2024-01-07T17:10:11;7.22;;;3.60;;
75616;SDS011;64200;55.426;37.758;2024-01-07T17:15:12;5.05;;;3.05;;
75616;SDS011;64200;55.426;37.758;2024-01-07T17:20:14;5.63;;;1.92;;
75616;SDS011;64200;55.426;37.758;2024-01-07T17:30:17;4.33;;;0.93;;
75616;SDS011;64200;55.426;37.758;2024-01-07T17:35:19;2.00;;;1.45;;
75616;SDS011;64200;55.426;37.758;2024-01-07T17:40:19;7.23;;;2.00;;
75616;SDS011;64200;55.426;37.758;2024-01-07T17:45:21;6.93;;;3.42;;
75616;SDS011;64200;55.426;37.758;2024-01-07T17:50:23;5.65;;;2.35;;
75616;SDS011;64200;55.426;37.758;2024-01-07T17:55:24;1.73;;;1.33;;
75616;SDS011;64200;55.426;37.758;2024-01-07T18:00:24;4.63;;;2.37;;
75616;SDS011;64200;55.426;37.758;2024-01-07T18:05:25;6.07;;;3.17;;
75616;SDS011;64200;55.426;37.758;2024-01-07T18:10:26;3.42;;;1.88;;
75616;SDS011;64200;55.426;37.758;2024-01-07T18:15:27;9.07;;;3.10;;
75616;SDS011;64200;55.426;37.758;2024-01-07T18:20:27;7.05;;;2.00;;
75616;SDS011;64200;55.426;37.758;2024-01-07T18:25:28;11.37;;;3.43;;
75616;SDS011;64200;55.426;37.758;2024-01-07T18:30:29;8.23;;;2.90;;
75616;SDS011;64200;55.426;37.758;2024-01-07T18:35:29;5.28;;;3.03;;
75616;SDS011;64200;55.426;37.758;2024-01-07T18:40:30;6.15;;;3.05;;
75616;SDS011;64200;55.426;37.758;2024-01-07T18:45:30;7.87;;;2.97;;
75616;SDS011;64200;55.426;37.758;2024-01-07T18:50:31;9.43;;;4.20;;
75616;SDS011;64200;55.426;37.758;2024-01-07T18:55:32;1.15;;;0.88;;
75616;SDS011;64200;55.426;37.758;2024-01-07T19:00:36;5.20;;;2.03;;
75616;SDS011;64200;55.426;37.758;2024-01-07T19:05:37;10.63;;;3.88;;
75616;SDS011;64200;55.426;37.758;2024-01-07T19:10:43;7.32;;;2.70;;
75616;SDS011;64200;55.426;37.758;2024-01-07T19:15:44;6.70;;;2.57;;
75616;SDS011;64200;55.426;37.758;2024-01-07T19:20:45;6.53;;;3.60;;
75616;SDS011;64200;55.426;37.758;2024-01-07T19:25:46;9.80;;;2.83;;
75616;SDS011;64200;55.426;37.758;2024-01-07T19:30:47;3.67;;;1.10;;
75616;SDS011;64200;55.426;37.758;2024-01-07T19:35:51;10.55;;;3.25;;
75616;SDS011;64200;55.426;37.758;2024-01-07T19:40:54;6.28;;;2.80;;
75616;SDS011;64200;55.426;37.758;2024-01-07T19:45:55;3.87;;;1.97;;
75616;SDS011;64200;55.426;37.758;2024-01-07T19:50:55;6.10;;;2.97;;
75616;SDS011;64200;55.426;37.758;2024-01-07T19:55:56;6.00;;;2.53;;
75616;SDS011;64200;55.426;37.758;2024-01-07T20:00:57;6.25;;;4.20;;
75616;SDS011;64200;55.426;37.758;2024-01-07T20:05:58;9.17;;;4.10;;
75616;SDS011;64200;55.426;37.758;2024-01-07T20:11:00;16.92;;;4.13;;
75616;SDS011;64200;55.426;37.758;2024-01-07T20:16:02;6.38;;;3.15;;
75616;SDS011;64200;55.426;37.758;2024-01-07T20:21:03;13.65;;;5.55;;
75616;SDS011;64200;55.426;37.758;2024-01-07T20:26:03;15.93;;;7.28;;
75616;SDS011;64200;55.426;37.758;2024-01-07T20:31:04;18.30;;;8.05;;
75616;SDS011;64200;55.426;37.758;2024-01-07T20:36:05;9.50;;;3.38;;
75616;SDS011;64200;55.426;37.758;2024-01-07T20:41:11;5.57;;;2.58;;
75616;SDS011;64200;55.426;37.758;2024-01-07T20:46:12;4.40;;;1.85;;
75616;SDS011;64200;55.426;37.758;2024-01-07T20:51:12;2.47;;;2.03;;
75616;SDS011;64200;55.426;37.758;2024-01-07T20:56:17;4.07;;;2.30;;
75616;SDS011;64200;55.426;37.758;2024-01-07T21:01:28;3.92;;;2.33;;
75616;SDS011;64200;55.426;37.758;2024-01-07T21:06:32;4.15;;;2.67;;
75616;SDS011;64200;55.426;37.758;2024-01-07T21:11:33;6.45;;;3.60;;
75616;SDS011;64200;55.426;37.758;2024-01-07T21:16:34;4.57;;;2.73;;
75616;SDS011;64200;55.426;37.758;2024-01-07T21:21:37;6.93;;;3.40;;
75616;SDS011;64200;55.426;37.758;2024-01-07T21:26:40;8.50;;;3.63;;
75616;SDS011;64200;55.426;37.758;2024-01-07T21:31:42;4.20;;;2.58;;
75616;SDS011;64200;55.426;37.758;2024-01-07T21:36:42;6.20;;;2.67;;
75616;SDS011;64200;55.426;37.758;2024-01-07T21:41:43;3.70;;;2.37;;
75616;SDS011;64200;55.426;37.758;2024-01-07T21:46:45;8.35;;;3.63;;
75616;SDS011;64200;55.426;37.758;2024-01-07T21:51:46;10.43;;;4.75;;
75616;SDS011;64200;55.426;37.758;2024-01-07T21:56:51;7.83;;;3.00;;
75616;SDS011;64200;55.426;37.758;2024-01-07T22:01:52;2.30;;;1.88;;
75616;SDS011;64200;55.426;37.758;2024-01-07T22:06:52;5.40;;;2.73;;
75616;SDS011;64200;55.426;37.758;2024-01-07T22:11:53;19.83;;;6.07;;
75616;SDS011;64200;55.426;37.758;2024-01-07T22:16:53;5.47;;;2.53;;
75616;SDS011;64200;55.426;37.758;2024-01-07T22:21:54;5.40;;;2.53;;
75616;SDS011;64200;55.426;37.758;2024-01-07T22:26:55;11.63;;;4.53;;
75616;SDS011;64200;55.426;37.758;2024-01-07T22:31:56;11.57;;;4.83;;
75616;SDS011;64200;55.426;37.758;2024-01-07T22:36:57;8.52;;;2.70;;
75616;SDS011;64200;55.426;37.758;2024-01-07T22:41:57;7.18;;;2.42;;
75616;SDS011;64200;55.426;37.758;2024-01-07T22:46:58;2.83;;;2.03;;
75616;SDS011;64200;55.426;37.758;2024-01-07T22:51:59;2.47;;;2.13;;
75616;SDS011;64200;55.426;37.758;2024-01-07T22:57:00;5.13;;;3.25;;
75616;SDS011;64200;55.426;37.758;2024-01-07T23:02:01;6.60;;;3.20;;
75616;SDS011;64200;55.426;37.758;2024-01-07T23:07:01;6.15;;;3.13;;
75616;SDS011;64200;55.426;37.758;2024-01-07T23:12:02;5.47;;;2.33;;
75616;SDS011;64200;55.426;37.758;2024-01-07T23:17:03;2.55;;;2.08;;
75616;SDS011;64200;55.426;37.758;2024-01-07T23:22:04;4.47;;;2.35;;
75616;SDS011;64200;55.426;37.758;2024-01-07T23:27:04;11.45;;;5.03;;
75616;SDS011;64200;55.426;37.758;2024-01-07T23:32:05;13.33;;;5.37;;
75616;SDS011;64200;55.426;37.758;2024-01-07T23:37:07;7.40;;;4.10;;
75616;SDS011;64200;55.426;37.758;2024-01-07T23:42:07;10.07;;;3.37;;
75616;SDS011;64200;55.426;37.758;2024-01-07T23:47:08;11.30;;;2.67;;
75616;SDS011;64200;55.426;37.758;2024-01-07T23:52:08;10.97;;;5.47;;
75616;SDS011;64200;55.426;37.758;2024-01-07T23:57:09;6.90;;;3.37;;
